| time (UTC) | temp F | wind direction | speed MPH | gust MPH | rain 1hr in | rain 24hr in | rain mn in | humidity % | barometer mb |
| 20260508105510 | 46 | 26 | 4.0 | 6.0 | 0.12 | 0.33 | 0.33 | 97 | 1019.2 |
| 20260508105008 | 46 | 342 | 4.0 | 4.0 | 0.12 | 0.32 | 0.32 | 97 | 1019.2 |
| 20260508104505 | 46 | 99 | 2.0 | 6.0 | 0.12 | 0.31 | 0.31 | 97 | 1019.2 |
| 20260508104001 | 46 | 15 | 7.0 | 9.0 | 0.19 | 0.30 | 0.30 | 97 | 1019.0 |
| 20260508103458 | 46 | 90 | 3.0 | 8.0 | 0.19 | 0.28 | 0.28 | 97 | 1019.2 |
| 20260508102955 | 46 | 91 | 3.0 | 6.0 | 0.17 | 0.27 | 0.27 | 97 | 1019.2 |
| 20260508102454 | 46 | 353 | 4.0 | 6.0 | 0.17 | 0.25 | 0.25 | 97 | 1019.2 |
| 20260508101950 | 46 | 355 | 3.0 | 4.0 | 0.26 | 0.24 | 0.24 | 97 | 1019.1 |
| 20260508101448 | 46 | 225 | 1.0 | 2.0 | 0.26 | 0.22 | 0.22 | 97 | 1019.2 |
| 20260508100945 | 46 | 283 | 3.0 | 9.0 | 0.24 | 0.20 | 0.20 | 97 | 1019.1 |
| 20260508100444 | 46 | 348 | 2.0 | 3.0 | 0.19 | 0.17 | 0.17 | 97 | 1019.1 |
| 20260508095939 | 46 | 34 | 2.0 | 4.0 | 0.19 | 0.15 | 0.15 | 96 | 1019.2 |
| 20260508095437 | 46 | 74 | 3.0 | 4.0 | 0.12 | 0.14 | 0.14 | 96 | 1019.1 |
| 20260508094934 | 46 | 21 | 4.0 | 4.0 | 0.05 | 0.12 | 0.12 | 96 | 1019.2 |
| 20260508094430 | 46 | 40 | 2.0 | 4.0 | 0.17 | 0.12 | 0.12 | 96 | 1018.9 |
| 20260508093927 | 46 | 88 | 1.0 | 6.0 | 0.19 | 0.11 | 0.11 | 96 | 1019.1 |
| 20260508093425 | 47 | 66 | 2.0 | 4.0 | 0.14 | 0.09 | 0.09 | 96 | 1018.9 |
| 20260508092922 | 47 | 351 | 1.0 | 3.0 | 0.19 | 0.08 | 0.08 | 96 | 1019.0 |
| 20260508092420 | 47 | 346 | 1.0 | 3.0 | 0.12 | 0.06 | 0.06 | 96 | 1019.0 |
| 20260508091918 | 47 | 331 | 3.0 | 4.0 | 0.12 | 0.05 | 0.05 | 95 | 1019.0 |
| 20260508091415 | 47 | 151 | 0.0 | 3.0 | 0.12 | 0.04 | 0.04 | 95 | 1019.0 |
| 20260508090912 | 47 | 154 | 0.0 | 3.0 | 0.05 | 0.03 | 0.03 | 95 | 1018.9 |
| 20260508090411 | 47 | 88 | 1.0 | 2.0 | 0.07 | 0.02 | 0.02 | 94 | 1018.9 |
| 20260508085911 | 47 | 69 | 1.0 | 2.0 | 0.07 | 0.02 | 0.02 | 94 | 1018.9 |
| 20260508085409 | 47 | 151 | 0.0 | 3.0 | 0.00 | 0.01 | 0.01 | 93 | 1018.7 |
| 20260508084905 | 47 | 169 | 0.0 | 2.0 | 0.05 | 0.01 | 0.01 | 94 | 1018.9 |
| 20260508084401 | 47 | 143 | 0.0 | 3.0 | 0.05 | 0.01 | 0.01 | 93 | 1018.7 |
| 20260508083859 | 47 | 64 | 3.0 | 3.0 | 0.00 | 0.00 | 0.00 | 92 | 1018.9 |
| 20260508083357 | 47 | 325 | 2.0 | 3.0 | 0.00 | 0.00 | 0.00 | 92 | 1018.8 |
| 20260508082856 | 47 | 110 | 2.0 | 3.0 | 0.00 | 0.00 | 0.00 | 91 | 1018.6 |
| 20260508082354 | 47 | 140 | 3.0 | 4.0 | 0.00 | 0.00 | 0.00 | 91 | 1018.8 |
| 20260508081851 | 47 | 78 | 2.0 | 4.0 | 0.00 | 0.00 | 0.00 | 91 | 1018.9 |
| 20260508081348 | 47 | 16 | 3.0 | 6.0 | 0.00 | 0.00 | 0.00 | 91 | 1018.8 |
| 20260508080845 | 47 | 173 | 1.0 | 4.0 | 0.00 | 0.00 | 0.00 | 91 | 1018.6 |
| 20260508080343 | 47 | 342 | 4.0 | 4.0 | 0.00 | 0.00 | 0.00 | 90 | 1018.8 |
| 20260508075839 | 47 | 126 | 1.0 | 9.0 | 0.00 | 0.00 | 0.00 | 90 | 1018.6 |
| 20260508075336 | 47 | 90 | 3.0 | 7.0 | 0.00 | 0.00 | 0.00 | 89 | 1018.6 |
| 20260508074834 | 48 | 78 | 4.0 | 6.0 | 0.00 | 0.00 | 0.00 | 89 | 1018.6 |
| 20260508074331 | 48 | 138 | 2.0 | 3.0 | 0.00 | 0.00 | 0.00 | 89 | 1018.4 |
| 20260508073828 | 47 | 81 | 2.0 | 2.0 | 0.00 | 0.00 | 0.00 | 89 | 1018.5 |
| 20260508073326 | 47 | 75 | 7.0 | 10.0 | 0.00 | 0.00 | 0.00 | 89 | 1018.2 |
| 20260508072822 | 47 | 157 | 0.0 | 3.0 | 0.00 | 0.00 | 0.00 | 90 | 1018.3 |
| 20260508072319 | 47 | 21 | 3.0 | 10.0 | 0.00 | 0.00 | 0.00 | 90 | 1018.3 |
| 20260508071816 | 47 | 3 | 2.0 | 3.0 | 0.00 | 0.00 | 0.00 | 90 | 1018.3 |
| 20260508071315 | 47 | 104 | 1.0 | 3.0 | 0.00 | 0.00 | 0.00 | 91 | 1018.1 |
| 20260508070811 | 47 | 289 | 2.0 | 7.0 | 0.00 | 0.00 | 0.00 | 91 | 1018.1 |
| 20260508070310 | 47 | 118 | 5.0 | 8.0 | 0.00 | 0.00 | 0.00 | 91 | 1018.2 |
| 20260508065807 | 47 | 224 | 3.0 | 8.0 | 0.00 | 0.00 | 0.00 | 91 | 1018.2 |
| 20260508065307 | 47 | 11 | 3.0 | 10.0 | 0.00 | 0.00 | 0.00 | 91 | 1018.3 |
| 20260508064803 | 47 | 161 | 1.0 | 6.0 | 0.00 | 0.00 | 0.00 | 91 | 1018.1 |
| 20260508064300 | 47 | 217 | 2.0 | 4.0 | 0.00 | 0.00 | 0.00 | 91 | 1018.0 |
| 20260508063757 | 47 | 122 | 2.0 | 4.0 | 0.00 | 0.00 | 0.00 | 91 | 1017.8 |
| 20260508063255 | 47 | 258 | 5.0 | 7.0 | 0.00 | 0.00 | 0.00 | 92 | 1017.8 |
| 20260508062752 | 47 | 168 | 1.0 | 4.0 | 0.00 | 0.00 | 0.00 | 92 | 1017.8 |
| 20260508062250 | 47 | 245 | 2.0 | 4.0 | 0.00 | 0.00 | 0.00 | 92 | 1017.7 |
| 20260508061746 | 47 | 95 | 1.0 | 4.0 | 0.00 | 0.00 | 0.00 | 93 | 1018.0 |
| 20260508061243 | 47 | 169 | 3.0 | 6.0 | 0.00 | 0.00 | 0.00 | 93 | 1017.7 |
| 20260508060740 | 47 | 145 | 1.0 | 2.0 | 0.00 | 0.00 | 0.00 | 94 | 1017.5 |
| 20260508060238 | 47 | 19 | 6.0 | 7.0 | 0.00 | 0.00 | 0.00 | 94 | 1017.7 |
| 20260508055733 | 47 | 118 | 2.0 | 3.0 | 0.00 | 0.00 | 0.00 | 95 | 1017.5 |
| 20260508055230 | 46 | 117 | 1.0 | 3.0 | 0.00 | 0.00 | 0.00 | 95 | 1017.5 |
| 20260508054727 | 46 | 348 | 2.0 | 3.0 | 0.00 | 0.00 | 0.00 | 95 | 1017.5 |
| 20260508054225 | 46 | 51 | 3.0 | 6.0 | 0.00 | 0.00 | 0.00 | 95 | 1017.4 |
| 20260508053722 | 46 | 331 | 8.0 | 8.0 | 0.00 | 0.00 | 0.00 | 95 | 1017.3 |
| 20260508053219 | 46 | 63 | 3.0 | 4.0 | 0.00 | 0.00 | 0.00 | 96 | 1017.3 |
| 20260508052716 | 46 | 354 | 2.0 | 4.0 | 0.00 | 0.00 | 0.00 | 96 | 1017.5 |
| 20260508052213 | 46 | 332 | 2.0 | 3.0 | 0.00 | 0.00 | 0.00 | 96 | 1017.7 |
| 20260508051709 | 46 | 117 | 1.0 | 7.0 | 0.00 | 0.00 | 0.00 | 96 | 1017.6 |
| 20260508051205 | 46 | 27 | 7.0 | 9.0 | 0.00 | 0.00 | 0.00 | 96 | 1017.6 |
| 20260508050701 | 46 | 96 | 1.0 | 4.0 | 0.00 | 0.00 | 0.00 | 96 | 1017.7 |
| 20260508050159 | 46 | 143 | 0.0 | 4.0 | 0.00 | 0.00 | 0.00 | 96 | 1017.5 |
| 20260508045654 | 46 | 18 | 3.0 | 6.0 | 0.00 | 0.00 | 0.00 | 96 | 1017.5 |
| 20260508045153 | 46 | 17 | 4.0 | 6.0 | 0.00 | 0.00 | 0.00 | 96 | 1017.4 |
| 20260508044649 | 46 | 35 | 5.0 | 7.0 | 0.00 | 0.00 | 0.00 | 96 | 1017.4 |
| 20260508044145 | 46 | 9 | 7.0 | 9.0 | 0.00 | 0.00 | 0.00 | 96 | 1017.4 |
| 20260508043642 | 46 | 176 | 1.0 | 6.0 | 0.00 | 0.00 | 0.00 | 96 | 1017.4 |
| 20260508043140 | 46 | 17 | 4.0 | 7.0 | 0.00 | 0.00 | 0.00 | 97 | 1017.4 |
| 20260508042636 | 46 | 336 | 4.0 | 6.0 | 0.00 | 0.00 | 0.00 | 97 | 1017.3 |
| 20260508042134 | 46 | 357 | 2.0 | 6.0 | 0.00 | 0.00 | 0.00 | 97 | 1017.3 |
| 20260508041630 | 46 | 191 | 2.0 | 8.0 | 0.00 | 0.00 | 0.00 | 97 | 1017.4 |
| 20260508041127 | 46 | 349 | 4.0 | 6.0 | 0.00 | 0.00 | 0.00 | 97 | 1017.4 |
| 20260508040623 | 46 | 27 | 2.0 | 3.0 | 0.00 | 0.00 | 0.00 | 97 | 1017.2 |
| 20260508040121 | 46 | 336 | 5.0 | 7.0 | 0.00 | 0.00 | 0.00 | 97 | 1017.0 |
| 20260508035618 | 46 | 111 | 2.0 | 7.0 | 0.00 | 0.00 | 0.00 | 97 | 1017.1 |
| 20260508035115 | 46 | 29 | 2.0 | 3.0 | 0.00 | 0.00 | 0.00 | 97 | 1017.2 |
| 20260508034612 | 46 | 341 | 4.0 | 8.0 | 0.00 | 0.00 | 0.00 | 97 | 1017.0 |
| 20260508034109 | 46 | 331 | 4.0 | 6.0 | 0.00 | 0.00 | 0.00 | 97 | 1017.2 |
| 20260508033606 | 46 | 117 | 0.0 | 1.0 | 0.00 | 0.00 | 0.00 | 97 | 1017.0 |
| 20260508033104 | 46 | 5 | 3.0 | 7.0 | 0.00 | 0.00 | 0.00 | 97 | 1016.8 |
| 20260508032601 | 46 | 328 | 5.0 | 8.0 | 0.00 | 0.00 | 0.00 | 97 | 1017.0 |
| 20260508032058 | 46 | 45 | 4.0 | 4.0 | 0.00 | 0.00 | 0.00 | 97 | 1017.0 |
| 20260508031555 | 46 | 162 | 1.0 | 4.0 | 0.00 | 0.00 | 0.00 | 97 | 1016.9 |
| 20260508031051 | 46 | 24 | 4.0 | 7.0 | 0.00 | 0.00 | 0.00 | 97 | 1017.0 |
| 20260508030547 | 46 | 145 | 2.0 | 4.0 | 0.00 | 0.00 | 0.00 | 97 | 1016.9 |
| 20260508030046 | 46 | 4 | 5.0 | 7.0 | 0.00 | 0.00 | 0.00 | 97 | 1016.9 |
| 20260508025542 | 46 | 81 | 2.0 | 2.0 | 0.00 | 0.00 | 0.00 | 97 | 1016.7 |
| 20260508025039 | 46 | 24 | 13.0 | 14.0 | 0.00 | 0.00 | 0.00 | 97 | 1016.9 |
| 20260508024535 | 46 | 63 | 3.0 | 9.0 | 0.00 | 0.00 | 0.00 | 97 | 1016.9 |
| 20260508024032 | 46 | 72 | 2.0 | 3.0 | 0.00 | 0.00 | 0.00 | 97 | 1016.8 |
| 20260508023528 | 46 | 305 | 3.0 | 7.0 | 0.00 | 0.00 | 0.00 | 97 | 1016.8 |
| 20260508023026 | 46 | 30 | 4.0 | 6.0 | 0.00 | 0.00 | 0.00 | 97 | 1017.0 |
| 20260508022522 | 46 | 350 | 3.0 | 7.0 | 0.00 | 0.00 | 0.00 | 97 | 1016.9 |
| 20260508022019 | 46 | 45 | 4.0 | 8.0 | 0.00 | 0.00 | 0.00 | 97 | 1016.8 |
| 20260508021515 | 47 | 130 | 2.0 | 8.0 | 0.00 | 0.00 | 0.00 | 97 | 1016.9 |
| 20260508021011 | 47 | 179 | 1.0 | 2.0 | 0.00 | 0.00 | 0.00 | 97 | 1016.8 |
| 20260508020509 | 46 | 32 | 2.0 | 4.0 | 0.00 | 0.00 | 0.00 | 97 | 1016.9 |
| 20260508020006 | 46 | 148 | 0.0 | 7.0 | 0.00 | 0.00 | 0.00 | 97 | 1016.8 |
| 20260508015503 | 47 | 337 | 2.0 | 3.0 | 0.00 | 0.00 | 0.00 | 97 | 1016.8 |
| 20260508015000 | 47 | 80 | 4.0 | 4.0 | 0.00 | 0.00 | 0.00 | 97 | 1016.8 |
| 20260508014456 | 47 | 332 | 2.0 | 3.0 | 0.00 | 0.00 | 0.00 | 97 | 1016.9 |
| 20260508013953 | 47 | 127 | 1.0 | 4.0 | 0.00 | 0.00 | 0.00 | 97 | 1016.9 |
| 20260508013448 | 47 | 31 | 5.0 | 7.0 | 0.00 | 0.00 | 0.00 | 97 | 1016.8 |
| 20260508012946 | 47 | 65 | 2.0 | 7.0 | 0.00 | 0.00 | 0.00 | 97 | 1016.9 |
| 20260508012443 | 47 | 5 | 3.0 | 3.0 | 0.00 | 0.00 | 0.00 | 97 | 1016.9 |
| 20260508011940 | 47 | 194 | 1.0 | 4.0 | 0.00 | 0.00 | 0.00 | 97 | 1016.7 |
| 20260508011438 | 47 | 161 | 1.0 | 2.0 | 0.00 | 0.00 | 0.00 | 97 | 1016.8 |
| 20260508010936 | 47 | 69 | 2.0 | 3.0 | 0.00 | 0.00 | 0.00 | 97 | 1016.9 |
| 20260508010432 | 47 | 27 | 2.0 | 3.0 | 0.00 | 0.00 | 0.00 | 97 | 1016.8 |
| 20260508005930 | 47 | 59 | 2.0 | 3.0 | 0.00 | 0.00 | 0.00 | 97 | 1016.6 |
| 20260508005426 | 47 | 6 | 6.0 | 9.0 | 0.00 | 0.00 | 0.00 | 97 | 1016.8 |
| 20260508004923 | 47 | 25 | 2.0 | 7.0 | 0.00 | 0.00 | 0.00 | 97 | 1016.8 |
| 20260508004419 | 47 | 142 | 2.0 | 3.0 | 0.00 | 0.00 | 0.00 | 97 | 1016.8 |
| 20260508003916 | 47 | 25 | 6.0 | 8.0 | 0.00 | 0.00 | 0.00 | 97 | 1016.8 |
| 20260508003413 | 47 | 88 | 2.0 | 6.0 | 0.00 | 0.00 | 0.00 | 97 | 1016.9 |
| 20260508002910 | 47 | 121 | 2.0 | 4.0 | 0.00 | 0.00 | 0.00 | 97 | 1016.8 |
| 20260508002406 | 47 | 24 | 3.0 | 6.0 | 0.00 | 0.00 | 0.00 | 97 | 1016.5 |
| 20260508001902 | 47 | 122 | 2.0 | 2.0 | 0.00 | 0.00 | 0.00 | 97 | 1016.9 |
| 20260508001358 | 47 | 92 | 4.0 | 7.0 | 0.00 | 0.00 | 0.00 | 97 | 1016.9 |
| 20260508000855 | 47 | 29 | 1.0 | 3.0 | 0.00 | 0.00 | 0.00 | 97 | 1017.0 |
| 20260508000351 | 47 | 7 | 1.0 | 4.0 | 0.00 | 0.00 | 0.00 | 97 | 1017.0 |
| 20260507235848 | 47 | 35 | 4.0 | 4.0 | 0.00 | 0.00 | 0.00 | 97 | 1017.0 |
| 20260507235346 | 47 | 53 | 3.0 | 3.0 | 0.00 | 0.00 | 0.00 | 97 | 1016.9 |
| 20260507234843 | 47 | 46 | 4.0 | 6.0 | 0.00 | 0.00 | 0.00 | 97 | 1016.7 |
| 20260507234339 | 47 | 350 | 2.0 | 3.0 | 0.00 | 0.00 | 0.00 | 96 | 1016.7 |
| 20260507233835 | 47 | 5 | 5.0 | 6.0 | 0.00 | 0.00 | 0.00 | 96 | 1016.8 |
| 20260507233333 | 47 | 341 | 3.0 | 4.0 | 0.00 | 0.00 | 0.00 | 96 | 1016.7 |
| 20260507232831 | 47 | 24 | 4.0 | 8.0 | 0.00 | 0.00 | 0.00 | 96 | 1016.7 |
| 20260507232327 | 47 | 108 | 2.0 | 6.0 | 0.00 | 0.00 | 0.00 | 96 | 1016.8 |
| 20260507231825 | 47 | 42 | 5.0 | 7.0 | 0.00 | 0.00 | 0.00 | 96 | 1017.1 |
| 20260507231321 | 47 | 107 | 2.0 | 3.0 | 0.00 | 0.00 | 0.00 | 96 | 1016.8 |
| 20260507230818 | 47 | 333 | 2.0 | 4.0 | 0.00 | 0.00 | 0.00 | 95 | 1016.9 |
| 20260507230315 | 47 | 7 | 2.0 | 4.0 | 0.00 | 0.00 | 0.00 | 95 | 1016.9 |
| 20260507225815 | 47 | 348 | 2.0 | 3.0 | 0.00 | 0.00 | 0.00 | 95 | 1016.8 |
| 20260507225312 | 47 | 64 | 3.0 | 3.0 | 0.00 | 0.00 | 0.00 | 95 | 1016.9 |
| 20260507224807 | 47 | 52 | 1.0 | 6.0 | 0.00 | 0.00 | 0.00 | 94 | 1016.7 |
| 20260507224304 | 47 | 54 | 3.0 | 7.0 | 0.00 | 0.00 | 0.00 | 94 | 1016.8 |
| 20260507223800 | 47 | 17 | 2.0 | 3.0 | 0.00 | 0.00 | 0.00 | 94 | 1016.7 |
| 20260507223257 | 47 | 105 | 1.0 | 4.0 | 0.00 | 0.00 | 0.00 | 93 | 1016.5 |
| 20260507222754 | 48 | 46 | 4.0 | 6.0 | 0.00 | 0.00 | 0.00 | 92 | 1016.7 |
| 20260507222250 | 48 | 92 | 1.0 | 2.0 | 0.00 | 0.00 | 0.00 | 92 | 1016.6 |
| 20260507221748 | 48 | 152 | 1.0 | 2.0 | 0.00 | 0.00 | 0.00 | 92 | 1016.5 |
| 20260507221243 | 48 | 53 | 4.0 | 4.0 | 0.00 | 0.00 | 0.00 | 91 | 1016.6 |
| 20260507220740 | 48 | 12 | 4.0 | 6.0 | 0.00 | 0.00 | 0.00 | 92 | 1016.5 |
| 20260507220239 | 48 | 14 | 3.0 | 8.0 | 0.00 | 0.00 | 0.00 | 92 | 1016.4 |
| 20260507215734 | 48 | 339 | 4.0 | 6.0 | 0.00 | 0.00 | 0.00 | 92 | 1016.4 |
| 20260507215232 | 48 | 348 | 5.0 | 7.0 | 0.00 | 0.00 | 0.00 | 92 | 1016.3 |
| 20260507214729 | 48 | 136 | 1.0 | 7.0 | 0.00 | 0.00 | 0.00 | 92 | 1016.5 |
| 20260507214226 | 48 | 24 | 2.0 | 4.0 | 0.00 | 0.00 | 0.00 | 93 | 1016.5 |
| 20260507213721 | 48 | 46 | 4.0 | 4.0 | 0.00 | 0.00 | 0.00 | 93 | 1016.6 |
| 20260507213219 | 48 | 329 | 4.0 | 4.0 | 0.00 | 0.00 | 0.00 | 93 | 1016.5 |
| 20260507212715 | 48 | 149 | 2.0 | 3.0 | 0.00 | 0.00 | 0.00 | 93 | 1016.5 |
| 20260507212212 | 48 | 38 | 5.0 | 7.0 | 0.00 | 0.00 | 0.00 | 93 | 1016.5 |
| 20260507211708 | 48 | 70 | 3.0 | 4.0 | 0.00 | 0.00 | 0.00 | 93 | 1016.4 |
| 20260507211204 | 48 | 320 | 4.0 | 8.0 | 0.00 | 0.00 | 0.00 | 93 | 1016.4 |
| 20260507210702 | 48 | 339 | 6.0 | 9.0 | 0.00 | 0.00 | 0.00 | 92 | 1016.3 |
| 20260507210158 | 48 | 323 | 2.0 | 3.0 | 0.00 | 0.00 | 0.00 | 93 | 1016.3 |
| 20260507205654 | 48 | 57 | 3.0 | 7.0 | 0.00 | 0.01 | 0.01 | 93 | 1016.3 |
| 20260507205151 | 48 | 55 | 2.0 | 4.0 | 0.00 | 0.01 | 0.01 | 93 | 1016.1 |
| 20260507204647 | 48 | 292 | 3.0 | 4.0 | 0.00 | 0.01 | 0.01 | 93 | 1016.2 |
| 20260507204145 | 48 | 58 | 3.0 | 6.0 | 0.00 | 0.01 | 0.01 | 93 | 1016.3 |
| 20260507203643 | 48 | 353 | 4.0 | 4.0 | 0.00 | 0.01 | 0.01 | 93 | 1016.2 |
| 20260507203140 | 48 | 353 | 3.0 | 4.0 | 0.00 | 0.01 | 0.01 | 93 | 1016.3 |
| 20260507202636 | 48 | 145 | 1.0 | 3.0 | 0.00 | 0.01 | 0.01 | 93 | 1016.0 |
| 20260507202132 | 48 | 356 | 2.0 | 6.0 | 0.00 | 0.01 | 0.01 | 93 | 1016.1 |
| 20260507201627 | 48 | 60 | 2.0 | 6.0 | 0.00 | 0.01 | 0.01 | 93 | 1016.2 |
| 20260507201125 | 48 | 352 | 5.0 | 7.0 | 0.00 | 0.01 | 0.01 | 93 | 1016.0 |
| 20260507200620 | 48 | 59 | 4.0 | 6.0 | 0.00 | 0.01 | 0.01 | 93 | 1016.0 |
| 20260507200117 | 48 | 124 | 0.0 | 2.0 | 0.00 | 0.01 | 0.01 | 94 | 1015.9 |
| 20260507195614 | 48 | 343 | 7.0 | 8.0 | 0.00 | 0.01 | 0.01 | 94 | 1016.0 |
| 20260507195111 | 48 | 116 | 2.0 | 6.0 | 0.00 | 0.01 | 0.01 | 94 | 1015.8 |
| 20260507194608 | 48 | 74 | 2.0 | 4.0 | 0.00 | 0.01 | 0.01 | 94 | 1015.7 |
| 20260507194103 | 48 | 51 | 2.0 | 4.0 | 0.00 | 0.01 | 0.01 | 94 | 1015.9 |
| 20260507193600 | 48 | 322 | 4.0 | 6.0 | 0.00 | 0.01 | 0.01 | 94 | 1015.7 |
| 20260507193057 | 48 | 332 | 2.0 | 3.0 | 0.00 | 0.01 | 0.01 | 94 | 1015.6 |
| 20260507192553 | 48 | 343 | 5.0 | 7.0 | 0.00 | 0.01 | 0.01 | 94 | 1015.6 |
| 20260507192051 | 48 | 32 | 4.0 | 8.0 | 0.00 | 0.01 | 0.01 | 94 | 1015.7 |
| 20260507191546 | 48 | 199 | 1.0 | 7.0 | 0.00 | 0.01 | 0.01 | 94 | 1015.5 |
| 20260507191043 | 48 | 299 | 2.0 | 7.0 | 0.00 | 0.01 | 0.01 | 94 | 1015.6 |
| 20260507190540 | 48 | 71 | 3.0 | 6.0 | 0.00 | 0.01 | 0.01 | 94 | 1015.3 |
| 20260507190039 | 48 | 17 | 6.0 | 8.0 | 0.00 | 0.01 | 0.01 | 94 | 1015.4 |
| 20260507185537 | 48 | 37 | 2.0 | 3.0 | 0.00 | 0.01 | 0.01 | 94 | 1015.2 |
| 20260507185033 | 48 | 155 | 1.0 | 3.0 | 0.00 | 0.01 | 0.01 | 94 | 1015.2 |
| 20260507184532 | 48 | 332 | 4.0 | 7.0 | 0.00 | 0.01 | 0.01 | 94 | 1015.2 |
| 20260507184029 | 48 | 3 | 4.0 | 6.0 | 0.00 | 0.01 | 0.01 | 94 | 1015.2 |
| 20260507183525 | 48 | 66 | 4.0 | 6.0 | 0.00 | 0.01 | 0.01 | 94 | 1015.4 |
| 20260507183022 | 48 | 339 | 3.0 | 4.0 | 0.00 | 0.01 | 0.01 | 95 | 1015.4 |
| 20260507182518 | 48 | 247 | 1.0 | 2.0 | 0.00 | 0.01 | 0.01 | 95 | 1015.2 |
| 20260507182014 | 48 | 247 | 0.0 | 4.0 | 0.00 | 0.01 | 0.01 | 95 | 1015.0 |
| 20260507181512 | 48 | 147 | 1.0 | 3.0 | 0.00 | 0.01 | 0.01 | 95 | 1015.1 |
| 20260507181008 | 48 | 351 | 4.0 | 7.0 | 0.00 | 0.01 | 0.01 | 95 | 1015.0 |
| 20260507180504 | 48 | 10 | 3.0 | 6.0 | 0.00 | 0.01 | 0.01 | 95 | 1015.0 |
| 20260507180000 | 48 | 35 | 4.0 | 7.0 | 0.00 | 0.01 | 0.01 | 95 | 1014.9 |
| 20260507175457 | 48 | 90 | 1.0 | 7.0 | 0.00 | 0.01 | 0.01 | 95 | 1015.0 |
| 20260507174955 | 48 | 92 | 1.0 | 3.0 | 0.00 | 0.01 | 0.01 | 95 | 1015.1 |
| 20260507174452 | 48 | 117 | 2.0 | 8.0 | 0.00 | 0.01 | 0.01 | 95 | 1015.0 |
| 20260507173949 | 48 | 151 | 1.0 | 3.0 | 0.00 | 0.01 | 0.01 | 95 | 1015.0 |
| 20260507173446 | 48 | 167 | 1.0 | 4.0 | 0.00 | 0.01 | 0.01 | 95 | 1015.0 |
| 20260507172943 | 48 | 62 | 2.0 | 3.0 | 0.00 | 0.01 | 0.01 | 95 | 1014.9 |
| 20260507172439 | 48 | 85 | 2.0 | 6.0 | 0.00 | 0.01 | 0.01 | 95 | 1014.8 |
| 20260507171936 | 48 | 65 | 3.0 | 9.0 | 0.00 | 0.01 | 0.01 | 94 | 1014.9 |
| 20260507171432 | 48 | 83 | 4.0 | 4.0 | 0.00 | 0.01 | 0.01 | 94 | 1014.7 |
| 20260507170930 | 48 | 335 | 4.0 | 4.0 | 0.00 | 0.01 | 0.01 | 94 | 1014.7 |
| 20260507170426 | 48 | 129 | 2.0 | 7.0 | 0.00 | 0.01 | 0.01 | 94 | 1014.6 |
| 20260507165922 | 48 | 170 | 1.0 | 9.0 | 0.00 | 0.01 | 0.01 | 93 | 1014.6 |
| 20260507165418 | 48 | 29 | 6.0 | 8.0 | 0.00 | 0.01 | 0.01 | 93 | 1014.6 |
| 20260507164914 | 48 | 310 | 3.0 | 4.0 | 0.00 | 0.01 | 0.01 | 93 | 1014.6 |
| 20260507164411 | 48 | 78 | 1.0 | 3.0 | 0.00 | 0.01 | 0.01 | 93 | 1014.5 |
| 20260507163909 | 48 | 138 | 2.0 | 4.0 | 0.00 | 0.01 | 0.01 | 93 | 1014.5 |
| 20260507163406 | 48 | 19 | 4.0 | 6.0 | 0.00 | 0.01 | 0.01 | 92 | 1014.2 |
| 20260507162902 | 48 | 17 | 6.0 | 9.0 | 0.00 | 0.01 | 0.01 | 92 | 1014.1 |
| 20260507162357 | 48 | 40 | 5.0 | 8.0 | 0.00 | 0.01 | 0.01 | 91 | 1014.0 |
| 20260507161855 | 49 | 78 | 2.0 | 6.0 | 0.00 | 0.01 | 0.01 | 91 | 1014.3 |
| 20260507161351 | 49 | 24 | 9.0 | 10.0 | 0.00 | 0.01 | 0.01 | 90 | 1014.2 |
| 20260507160848 | 49 | 341 | 2.0 | 6.0 | 0.00 | 0.01 | 0.01 | 90 | 1013.8 |
| 20260507160343 | 49 | 39 | 4.0 | 7.0 | 0.00 | 0.01 | 0.01 | 90 | 1013.9 |
| 20260507155840 | 49 | 61 | 6.0 | 9.0 | 0.00 | 0.01 | 0.01 | 89 | 1013.9 |
| 20260507155336 | 49 | 54 | 4.0 | 6.0 | 0.00 | 0.01 | 0.01 | 90 | 1014.0 |
| 20260507154833 | 49 | 323 | 4.0 | 9.0 | 0.00 | 0.01 | 0.01 | 90 | 1014.0 |
| 20260507154330 | 49 | 0 | 9.0 | 10.0 | 0.00 | 0.01 | 0.01 | 91 | 1014.0 |
| 20260507153827 | 49 | 80 | 4.0 | 8.0 | 0.00 | 0.01 | 0.01 | 90 | 1014.0 |
| 20260507153323 | 49 | 11 | 7.0 | 8.0 | 0.00 | 0.01 | 0.01 | 91 | 1014.0 |
| 20260507152820 | 50 | 69 | 2.0 | 8.0 | 0.00 | 0.01 | 0.01 | 91 | 1014.0 |
| 20260507152317 | 50 | 11 | 2.0 | 4.0 | 0.00 | 0.01 | 0.01 | 91 | 1013.8 |
| 20260507151813 | 50 | 46 | 5.0 | 8.0 | 0.00 | 0.01 | 0.01 | 90 | 1014.0 |
| 20260507151309 | 50 | 11 | 6.0 | 9.0 | 0.00 | 0.01 | 0.01 | 90 | 1014.0 |
| 20260507150806 | 50 | 48 | 3.0 | 6.0 | 0.00 | 0.01 | 0.01 | 89 | 1013.7 |
| 20260507150302 | 50 | 49 | 5.0 | 6.0 | 0.00 | 0.01 | 0.01 | 89 | 1013.8 |
| 20260507145759 | 50 | 355 | 6.0 | 8.0 | 0.00 | 0.01 | 0.01 | 89 | 1013.6 |
| 20260507145255 | 50 | 349 | 6.0 | 10.0 | 0.00 | 0.01 | 0.01 | 88 | 1013.6 |
| 20260507144752 | 50 | 20 | 5.0 | 8.0 | 0.00 | 0.01 | 0.01 | 88 | 1013.8 |
| 20260507144250 | 51 | 4 | 5.0 | 8.0 | 0.00 | 0.01 | 0.01 | 88 | 1013.6 |
| 20260507143746 | 51 | 3 | 3.0 | 8.0 | 0.00 | 0.01 | 0.01 | 87 | 1013.4 |
| 20260507143244 | 51 | 334 | 3.0 | 9.0 | 0.00 | 0.01 | 0.01 | 87 | 1013.5 |
| 20260507142739 | 51 | 8 | 6.0 | 11.0 | 0.00 | 0.01 | 0.01 | 87 | 1013.5 |
| 20260507142236 | 51 | 35 | 6.0 | 8.0 | 0.00 | 0.01 | 0.01 | 87 | 1013.3 |
| 20260507141732 | 51 | 96 | 2.0 | 6.0 | 0.00 | 0.01 | 0.01 | 86 | 1013.4 |
| 20260507141230 | 51 | 349 | 4.0 | 11.0 | 0.00 | 0.01 | 0.01 | 86 | 1013.3 |
| 20260507140725 | 51 | 179 | 1.0 | 4.0 | 0.00 | 0.01 | 0.01 | 87 | 1013.3 |
| 20260507140223 | 51 | 32 | 4.0 | 8.0 | 0.00 | 0.01 | 0.01 | 86 | 1013.2 |
| 20260507135720 | 51 | 29 | 9.0 | 10.0 | 0.00 | 0.01 | 0.01 | 86 | 1013.1 |
| 20260507135218 | 51 | 27 | 3.0 | 7.0 | 0.00 | 0.01 | 0.01 | 86 | 1012.8 |
| 20260507134713 | 52 | 307 | 6.0 | 9.0 | 0.00 | 0.01 | 0.01 | 85 | 1013.1 |
| 20260507134210 | 52 | 327 | 6.0 | 7.0 | 0.00 | 0.01 | 0.01 | 84 | 1013.1 |
| 20260507133706 | 54 | 32 | 5.0 | 7.0 | 0.00 | 0.01 | 0.01 | 82 | 1013.0 |
| 20260507133203 | 53 | 43 | 5.0 | 9.0 | 0.00 | 0.01 | 0.01 | 82 | 1012.8 |
| 20260507132700 | 54 | 8 | 8.0 | 10.0 | 0.00 | 0.01 | 0.01 | 81 | 1012.5 |
| 20260507132157 | 54 | 50 | 5.0 | 10.0 | 0.00 | 0.01 | 0.01 | 81 | 1012.5 |
| 20260507131654 | 55 | 108 | 2.0 | 9.0 | 0.00 | 0.01 | 0.01 | 82 | 1012.3 |
| 20260507131151 | 55 | 14 | 6.0 | 11.0 | 0.00 | 0.01 | 0.01 | 81 | 1012.2 |
| 20260507130647 | 55 | 27 | 6.0 | 15.0 | 0.00 | 0.01 | 0.01 | 81 | 1012.0 |
| 20260507130145 | 55 | 347 | 9.0 | 13.0 | 0.00 | 0.01 | 0.01 | 82 | 1012.0 |
| 20260507125644 | 55 | 10 | 7.0 | 13.0 | 0.00 | 0.01 | 0.01 | 81 | 1011.9 |
| 20260507125141 | 57 | 30 | 6.0 | 9.0 | 0.00 | 0.01 | 0.01 | 78 | 1012.0 |
| 20260507124637 | 58 | 50 | 5.0 | 8.0 | 0.00 | 0.01 | 0.01 | 77 | 1011.9 |
| 20260507124135 | 57 | 347 | 5.0 | 6.0 | 0.00 | 0.01 | 0.01 | 80 | 1012.1 |
| 20260507123633 | 57 | 37 | 7.0 | 10.0 | 0.00 | 0.01 | 0.01 | 80 | 1011.9 |
| 20260507123130 | 57 | 1 | 6.0 | 13.0 | 0.00 | 0.01 | 0.01 | 81 | 1012.1 |
| 20260507122625 | 57 | 28 | 4.0 | 10.0 | 0.00 | 0.01 | 0.01 | 80 | 1012.1 |
| 20260507122121 | 58 | 347 | 3.0 | 3.0 | 0.00 | 0.01 | 0.01 | 79 | 1012.0 |
| 20260507121618 | 58 | 17 | 7.0 | 8.0 | 0.00 | 0.01 | 0.01 | 79 | 1012.0 |
| 20260507121114 | 58 | 300 | 3.0 | 9.0 | 0.00 | 0.01 | 0.01 | 79 | 1012.0 |
| 20260507120610 | 58 | 199 | 2.0 | 7.0 | 0.00 | 0.01 | 0.01 | 81 | 1011.9 |
| 20260507120107 | 59 | 35 | 4.0 | 10.0 | 0.00 | 0.01 | 0.01 | 78 | 1011.7 |
| 20260507115603 | 58 | 59 | 5.0 | 11.0 | 0.00 | 0.01 | 0.01 | 79 | 1011.9 |
| 20260507115059 | 59 | 18 | 9.0 | 14.0 | 0.00 | 0.01 | 0.01 | 77 | 1011.6 |
| 20260507114555 | 60 | 313 | 6.0 | 11.0 | 0.00 | 0.01 | 0.01 | 77 | 1011.5 |
| 20260507114052 | 60 | 37 | 9.0 | 10.0 | 0.00 | 0.01 | 0.01 | 76 | 1011.4 |
| 20260507113549 | 60 | 274 | 1.0 | 8.0 | 0.00 | 0.01 | 0.01 | 77 | 1011.4 |
| 20260507113046 | 61 | 330 | 7.0 | 13.0 | 0.00 | 0.01 | 0.01 | 76 | 1011.4 |
| 20260507112544 | 61 | 334 | 1.0 | 7.0 | 0.00 | 0.01 | 0.01 | 76 | 1011.4 |
| 20260507112041 | 63 | 31 | 7.0 | 15.0 | 0.00 | 0.01 | 0.01 | 74 | 1011.6 |
| 20260507111538 | 63 | 63 | 3.0 | 7.0 | 0.00 | 0.01 | 0.01 | 73 | 1011.4 |
| 20260507111035 | 64 | 102 | 1.0 | 7.0 | 0.00 | 0.01 | 0.01 | 72 | 1011.2 |
| 20260507110531 | 64 | 163 | 1.0 | 6.0 | 0.00 | 0.01 | 0.01 | 72 | 1011.2 |
| 20260507110027 | 63 | 34 | 2.0 | 6.0 | 0.00 | 0.01 | 0.01 | 74 | 1011.2 |